Time;durP1;ratioP1;P1;durP2;ratioP2;P2;SDS_P1;SDS_P2;PMS_P1;PMS_P2;Temp;Humidity;BMP_temperature;BMP_pressure;BME280_temperature;BME280_humidity;BME280_pressure;Samples;Min_cycle;Max_cycle;Signal;HPM_P1;HPM_P2
2024/01/24 00:02:02;;;;;;;4.75;1.48;;;;;;;16.27;63.48;101293.19;4855872;28;123715;-80
2024/01/24 00:04:29;;;;;;;4.55;1.45;;;;;;;16.29;63.14;101280.59;4855688;28;120720;-79
2024/01/24 00:06:56;;;;;;;5.60;1.63;;;;;;;16.31;63.18;101284.03;4868790;28;119765;-79
2024/01/24 00:09:23;;;;;;;3.78;1.58;;;;;;;16.34;63.16;101268.66;4856401;28;124615;-79
2024/01/24 00:11:51;;;;;;;5.75;1.33;;;;;;;16.36;63.03;101271.25;4873165;28;125032;-80
2024/01/24 00:14:18;;;;;;;5.35;1.58;;;;;;;16.38;63.17;101268.47;4850327;28;118313;-79
2024/01/24 00:16:45;;;;;;;3.92;1.48;;;;;;;16.41;63.09;101279.00;4853204;28;118436;-79
2024/01/24 00:19:13;;;;;;;4.80;1.40;;;;;;;16.42;62.85;101270.84;4839895;28;122477;-79
2024/01/24 00:21:40;;;;;;;5.90;1.35;;;;;;;16.45;62.80;101281.38;4873383;28;123733;-79
2024/01/24 00:24:08;;;;;;;5.00;1.23;;;;;;;16.48;62.85;101288.31;4855770;28;119727;-80
2024/01/24 00:26:38;;;;;;;7.43;1.30;;;;;;;16.49;62.72;101282.88;4859331;28;119883;-79
2024/01/24 00:29:05;;;;;;;4.45;1.30;;;;;;;16.52;62.62;101285.38;4841167;28;123384;-79
2024/01/24 00:31:34;;;;;;;3.28;1.13;;;;;;;16.54;62.67;101254.06;4844649;28;96764;-79
2024/01/24 00:34:01;;;;;;;5.43;1.23;;;;;;;16.57;62.60;101230.75;4859702;28;117410;-79
2024/01/24 00:36:29;;;;;;;3.75;1.20;;;;;;;16.58;62.48;101237.81;4858059;28;118834;-79
2024/01/24 00:38:56;;;;;;;3.13;1.20;;;;;;;16.60;62.41;101241.25;4877703;28;122069;-79
2024/01/24 00:41:23;;;;;;;2.78;1.17;;;;;;;16.63;62.40;101241.03;4872579;28;121922;-79
2024/01/24 00:43:50;;;;;;;4.30;1.10;;;;;;;16.66;62.31;101240.84;4856135;28;118074;-79
2024/01/24 00:46:17;;;;;;;4.13;1.17;;;;;;;16.68;62.39;101252.31;4878862;28;118884;-80
2024/01/24 00:48:45;;;;;;;3.05;1.20;;;;;;;16.70;62.27;101255.75;4877488;28;123814;-79
2024/01/24 00:51:12;;;;;;;2.55;1.00;;;;;;;16.72;62.13;101251.16;4870822;28;124150;-78
2024/01/24 00:53:40;;;;;;;3.08;0.98;;;;;;;16.74;62.31;101250.13;4871224;28;119465;-79
2024/01/24 00:56:07;;;;;;;2.75;1.00;;;;;;;16.76;62.09;101239.28;4858555;28;119113;-79
2024/01/24 00:58:34;;;;;;;3.40;1.00;;;;;;;16.78;62.09;101245.41;4875605;28;123788;-80
2024/01/24 01:01:02;;;;;;;1.92;0.93;;;;;;;16.79;61.90;101257.81;4873234;28;124681;-79
2024/01/24 01:03:29;;;;;;;4.93;1.17;;;;;;;16.78;61.84;101218.66;4873849;28;120296;-79
2024/01/24 01:05:56;;;;;;;3.50;1.02;;;;;;;16.79;62.02;101220.38;4843342;28;117382;-79
2024/01/24 01:08:23;;;;;;;2.97;1.08;;;;;;;16.79;61.87;101204.31;4872824;28;125971;-79
2024/01/24 01:10:51;;;;;;;3.15;1.00;;;;;;;16.78;61.86;101212.44;4857780;28;123998;-79
2024/01/24 01:13:18;;;;;;;2.13;1.00;;;;;;;16.75;62.05;101229.56;4845985;28;119091;-79
2024/01/24 01:15:45;;;;;;;2.35;1.00;;;;;;;16.71;62.02;101241.44;4840563;28;120153;-79
2024/01/24 01:18:13;;;;;;;2.67;1.13;;;;;;;16.68;62.10;101236.25;4857572;28;123743;-79
2024/01/24 01:20:40;;;;;;;1.85;0.90;;;;;;;16.66;62.19;101224.81;4873510;28;123831;-79
2024/01/24 01:23:07;;;;;;;2.85;1.05;;;;;;;16.61;62.31;101230.44;4860601;28;119522;-79
2024/01/24 01:25:34;;;;;;;1.95;0.98;;;;;;;16.58;62.45;101221.78;4857725;28;117626;-79
2024/01/24 01:28:02;;;;;;;2.10;1.20;;;;;;;16.55;62.63;101217.47;4875421;28;124215;-79
2024/01/24 01:30:29;;;;;;;2.67;1.02;;;;;;;16.52;62.34;101253.28;4857366;28;123306;-79
2024/01/24 01:32:56;;;;;;;2.47;0.95;;;;;;;16.51;62.44;101227.50;4876477;28;118927;-79
2024/01/24 01:35:23;;;;;;;1.73;0.90;;;;;;;16.49;62.54;101234.75;4857823;28;117309;-79
2024/01/24 01:37:50;;;;;;;2.80;1.02;;;;;;;16.47;62.63;101231.34;4865411;28;124611;-79
2024/01/24 01:40:18;;;;;;;1.63;0.98;;;;;;;16.47;62.75;101225.97;4860435;28;121764;-79
2024/01/24 01:42:45;;;;;;;3.13;0.90;;;;;;;16.47;62.59;101236.69;4859261;28;121289;-79
2024/01/24 01:45:12;;;;;;;3.42;1.05;;;;;;;16.47;62.76;101247.38;4872719;28;119900;-79
2024/01/24 01:47:40;;;;;;;3.05;1.08;;;;;;;16.48;62.54;101251.78;4866816;28;124873;-79
2024/01/24 01:50:10;;;;;;;2.05;0.90;;;;;;;16.46;62.74;101240.31;4872424;28;122742;-79
2024/01/24 01:52:38;;;;;;;1.63;0.88;;;;;;;16.46;62.54;101229.63;4858265;28;120544;-79
2024/01/24 01:55:08;;;;;;;2.78;1.00;;;;;;;16.46;62.70;101240.31;4871679;28;119191;-79
2024/01/24 01:57:38;;;;;;;1.40;0.90;;;;;;;16.44;62.70;101241.34;4873363;28;125131;-79
2024/01/24 02:00:08;;;;;;;1.92;0.85;;;;;;;16.42;62.68;101246.78;4868679;28;124481;-79
2024/01/24 02:02:36;;;;;;;1.50;0.90;;;;;;;16.40;62.96;101250.53;4870801;28;119110;-79
2024/01/24 02:05:04;;;;;;;3.42;0.98;;;;;;;16.35;63.16;101253.50;4856194;28;118334;-79
2024/01/24 02:07:32;;;;;;;3.55;1.00;;;;;;;16.31;63.16;101233.25;4846696;28;126185;-79
2024/01/24 02:09:59;;;;;;;2.20;1.10;;;;;;;16.24;63.28;101223.91;4850590;28;124264;-80
2024/01/24 02:12:26;;;;;;;3.15;0.95;;;;;;;16.19;63.38;101215.31;4855405;28;117397;-79
2024/01/24 02:14:54;;;;;;;1.60;0.90;;;;;;;16.14;63.62;101207.56;4870077;28;120268;-79
2024/01/24 02:17:21;;;;;;;2.10;1.10;;;;;;;16.09;63.83;101215.91;4875401;28;122397;-79
2024/01/24 02:19:48;;;;;;;2.08;0.80;;;;;;;16.05;63.81;101214.38;4859910;28;123146;-79
2024/01/24 02:22:16;;;;;;;3.92;1.23;;;;;;;16.02;64.10;101225.25;4848189;28;118011;-79
2024/01/24 02:24:43;;;;;;;1.38;0.70;;;;;;;15.98;64.09;101223.72;4862408;28;118072;-80
2024/01/24 02:27:10;;;;;;;1.52;0.85;;;;;;;15.94;64.23;101224.88;4878318;28;125097;-80
2024/01/24 02:29:37;;;;;;;1.25;0.80;;;;;;;15.92;64.45;101229.44;4858865;28;122551;-80
2024/01/24 02:32:05;;;;;;;1.48;0.98;;;;;;;15.89;64.34;101234.97;4843050;28;122044;-80
2024/01/24 02:34:33;;;;;;;1.58;0.77;;;;;;;15.86;64.57;101230.69;4869287;28;120134;-80
2024/01/24 02:37:00;;;;;;;1.98;1.05;;;;;;;15.85;64.44;101222.75;4865753;28;124414;-80
2024/01/24 02:39:27;;;;;;;1.75;0.90;;;;;;;15.83;64.71;101216.66;4867529;28;124082;-80
2024/01/24 02:41:55;;;;;;;1.65;0.70;;;;;;;15.80;64.91;101219.50;4856764;28;119109;-80
2024/01/24 02:44:22;;;;;;;1.42;0.85;;;;;;;15.79;64.98;101236.50;4860278;28;119024;-80
2024/01/24 02:46:49;;;;;;;1.45;0.70;;;;;;;15.77;65.04;101241.91;4864179;28;122187;-79
2024/01/24 02:49:16;;;;;;;1.95;0.75;;;;;;;15.76;65.29;101225.06;4895685;28;123799;-80
2024/01/24 02:51:44;;;;;;;3.08;0.80;;;;;;;15.75;65.22;101228.66;4875407;28;118939;-79
2024/01/24 02:54:11;;;;;;;2.22;0.80;;;;;;;15.75;65.20;101239.34;4869058;28;117827;-80
2024/01/24 02:56:39;;;;;;;0.70;0.70;;;;;;;15.74;65.37;101237.59;4859318;28;122189;-79
2024/01/24 02:59:06;;;;;;;1.58;0.65;;;;;;;15.74;65.44;101242.94;4881621;28;123138;-79
2024/01/24 03:01:33;;;;;;;1.70;0.82;;;;;;;15.73;65.40;101225.22;4874306;28;120876;-80
2024/01/24 03:04:01;;;;;;;0.80;0.60;;;;;;;15.73;65.44;101209.19;4878222;28;119100;-79
2024/01/24 03:06:28;;;;;;;0.93;0.60;;;;;;;15.73;65.57;101209.19;4869606;28;123987;-80
2024/01/24 03:08:56;;;;;;;0.85;0.63;;;;;;;15.73;65.64;101206.53;4877391;28;124120;-80
2024/01/24 03:11:24;;;;;;;0.85;0.65;;;;;;;15.73;65.57;101225.22;4883659;28;118955;-80
2024/01/24 03:13:51;;;;;;;1.58;0.70;;;;;;;15.75;65.61;101244.69;4862697;28;118540;-80
2024/01/24 03:16:19;;;;;;;1.02;0.70;;;;;;;15.75;65.68;101244.69;4875364;28;122411;-80
2024/01/24 03:18:47;;;;;;;0.90;0.77;;;;;;;15.75;65.65;101239.34;4864769;28;122856;-80
2024/01/24 03:21:17;;;;;;;1.15;0.70;;;;;;;15.76;65.66;101245.53;4877121;28;120223;-80
2024/01/24 03:23:45;;;;;;;1.25;0.88;;;;;;;15.76;65.68;101235.72;4877325;28;121558;-80
2024/01/24 03:26:16;;;;;;;1.17;0.60;;;;;;;15.76;65.76;101251.75;4842779;29;122838;-80
2024/01/24 03:28:43;;;;;;;1.08;0.85;;;;;;;15.76;65.72;101262.44;4869719;28;123526;-80
2024/01/24 03:31:11;;;;;;;1.70;1.00;;;;;;;15.75;65.80;101266.03;4876172;28;118400;-80
2024/01/24 03:33:38;;;;;;;1.40;1.10;;;;;;;15.75;65.76;101271.38;4875707;28;119559;-80
2024/01/24 03:36:06;;;;;;;1.85;1.13;;;;;;;15.75;65.82;101276.72;4859115;28;123657;-81
2024/01/24 03:38:34;;;;;;;1.67;1.20;;;;;;;15.74;65.82;101291.00;4859710;28;124138;-80
2024/01/24 03:41:01;;;;;;;2.22;1.30;;;;;;;15.74;65.93;101315.06;4876497;28;119287;-80
2024/01/24 03:43:28;;;;;;;3.15;1.35;;;;;;;15.73;65.82;101308.00;4877479;28;117309;-79
2024/01/24 03:45:55;;;;;;;2.45;1.48;;;;;;;15.72;65.97;101314.25;4874080;28;123558;-80
2024/01/24 03:48:23;;;;;;;3.50;1.48;;;;;;;15.71;65.80;101291.19;4858953;28;121987;-80
2024/01/24 03:50:50;;;;;;;2.85;1.45;;;;;;;15.71;65.77;101303.69;4856768;28;119068;-80
2024/01/24 03:53:17;;;;;;;3.03;1.27;;;;;;;15.71;65.55;101291.19;4857436;28;120461;-80
2024/01/24 03:55:44;;;;;;;3.33;1.33;;;;;;;15.71;65.69;101293.00;4858702;28;123132;-80
2024/01/24 03:58:11;;;;;;;3.75;1.40;;;;;;;15.71;65.26;101301.88;4879682;28;123837;-79
2024/01/24 04:00:39;;;;;;;3.70;1.35;;;;;;;15.71;65.16;101312.56;4876824;28;118912;-79
2024/01/24 04:03:06;;;;;;;2.40;1.00;;;;;;;15.72;64.96;101324.94;4896412;28;118619;-77
2024/01/24 04:05:33;;;;;;;4.10;1.30;;;;;;;15.72;64.97;101319.59;4891739;28;123635;-78
2024/01/24 04:08:00;;;;;;;3.33;1.30;;;;;;;15.73;64.82;101324.03;4854570;28;126236;-78
2024/01/24 04:10:27;;;;;;;3.30;1.20;;;;;;;15.74;64.67;101296.34;4878650;28;121878;-78
2024/01/24 04:12:54;;;;;;;4.25;1.27;;;;;;;15.77;64.30;101285.50;4879683;28;121000;-78
2024/01/24 04:15:22;;;;;;;7.25;1.33;;;;;;;15.76;64.29;101283.81;4894100;28;124690;-78
2024/01/24 04:17:49;;;;;;;5.53;1.35;;;;;;;15.79;64.10;101276.56;4894692;28;125553;-77
2024/01/24 04:20:16;;;;;;;6.30;1.48;;;;;;;15.77;63.87;101280.16;4876452;28;118745;-78
2024/01/24 04:22:44;;;;;;;7.32;1.65;;;;;;;15.80;63.68;101299.63;4879558;28;118421;-78
2024/01/24 04:25:11;;;;;;;4.45;1.40;;;;;;;15.77;63.52;101312.22;4896293;28;124662;-78
2024/01/24 04:27:39;;;;;;;6.53;2.00;;;;;;;15.76;63.31;101321.19;4888317;28;124122;-78
2024/01/24 04:30:07;;;;;;;8.05;2.08;;;;;;;15.75;62.92;101335.47;4890006;28;120291;-79
2024/01/24 04:32:34;;;;;;;9.82;1.98;;;;;;;15.75;62.58;101346.16;4869414;28;120239;-80
2024/01/24 04:35:02;;;;;;;10.63;2.15;;;;;;;15.75;62.51;101351.50;4854771;28;124415;-80
2024/01/24 04:37:29;;;;;;;7.85;2.10;;;;;;;15.74;62.37;101344.44;4853734;28;125831;-80
2024/01/24 04:39:56;;;;;;;9.05;2.13;;;;;;;15.74;62.32;101333.75;4855226;28;121167;-80
2024/01/24 04:42:24;;;;;;;8.98;2.42;;;;;;;15.74;61.84;101339.09;4865631;28;120043;-80
2024/01/24 04:44:52;;;;;;;10.15;2.45;;;;;;;15.74;61.69;101327.56;4863916;28;125336;-79
2024/01/24 04:47:19;;;;;;;12.82;2.17;;;;;;;15.72;61.73;101345.44;4860611;28;122603;-80
2024/01/24 04:49:46;;;;;;;14.57;2.80;;;;;;;15.72;61.49;101346.31;4855186;28;118742;-80
2024/01/24 04:52:13;;;;;;;10.32;2.22;;;;;;;15.70;61.36;101353.53;4861066;28;121587;-80
2024/01/24 04:54:41;;;;;;;13.55;2.53;;;;;;;15.70;61.09;101340.19;4865215;28;123151;-80
2024/01/24 04:57:09;;;;;;;11.80;2.53;;;;;;;15.70;61.13;101321.50;4879437;28;124201;-80
2024/01/24 04:59:36;;;;;;;11.48;2.65;;;;;;;15.71;60.88;101347.28;4838494;28;120933;-80
2024/01/24 05:02:19;;;;;;;10.38;2.22;;;;;;;15.69;60.52;101325.13;4862586;28;120477;-80
2024/01/24 05:04:47;;;;;;;15.32;3.03;;;;;;;15.68;60.62;101339.44;4880036;28;124712;-80
2024/01/24 05:07:15;;;;;;;12.40;2.30;;;;;;;15.68;60.42;101344.75;4851398;28;124629;-80
2024/01/24 05:09:43;;;;;;;12.88;2.85;;;;;;;15.66;60.22;101352.00;4868666;28;121265;-80
2024/01/24 05:12:10;;;;;;;15.63;2.85;;;;;;;15.66;60.12;101357.34;4851366;28;120300;-79
2024/01/24 05:14:38;;;;;;;14.57;2.53;;;;;;;15.64;60.02;101369.94;4869434;28;124607;-80
2024/01/24 05:17:05;;;;;;;14.70;2.65;;;;;;;15.63;60.03;101368.19;4867747;28;125173;-80
2024/01/24 05:19:32;;;;;;;17.77;3.22;;;;;;;15.61;59.61;101378.09;4868318;28;120506;-80
2024/01/24 05:22:00;;;;;;;16.92;3.50;;;;;;;15.60;59.38;101368.41;4869329;28;118740;-79
2024/01/24 05:24:28;;;;;;;17.52;3.33;;;;;;;15.58;59.31;101399.66;4867375;28;124088;-80
2024/01/24 05:26:55;;;;;;;16.30;2.83;;;;;;;15.57;59.28;101397.94;4863958;28;125387;-80
2024/01/24 05:29:22;;;;;;;19.40;3.15;;;;;;;15.55;59.32;101423.84;4870944;28;119030;-80
2024/01/24 05:31:49;;;;;;;16.00;3.05;;;;;;;15.56;58.99;101420.25;4858608;28;117797;-80
2024/01/24 05:34:16;;;;;;;18.77;3.28;;;;;;;15.54;58.95;101400.78;4866666;28;123855;-80
2024/01/24 05:36:44;;;;;;;17.73;3.72;;;;;;;15.54;58.65;101403.47;4875312;28;121866;-80
2024/01/24 05:39:11;;;;;;;19.95;3.75;;;;;;;15.53;58.84;101425.75;4872759;28;118361;-80
2024/01/24 05:41:38;;;;;;;17.63;3.22;;;;;;;15.55;58.65;101407.84;4869670;28;120269;-80
2024/01/24 05:44:05;;;;;;;12.82;3.33;;;;;;;15.54;58.44;101406.13;4853838;28;126295;-80
2024/01/24 05:46:32;;;;;;;18.77;3.53;;;;;;;15.55;58.45;101397.16;4853293;28;124702;-79
2024/01/24 05:49:00;;;;;;;16.88;3.80;;;;;;;15.54;58.19;101407.00;4853203;28;121179;-79
2024/01/24 05:51:28;;;;;;;15.57;3.60;;;;;;;15.54;58.32;101428.34;4871512;28;120143;-80
2024/01/24 05:53:56;;;;;;;20.58;3.78;;;;;;;15.51;58.26;101416.97;4849132;28;123858;-80
2024/01/24 05:56:23;;;;;;;18.60;3.70;;;;;;;15.51;58.09;101423.16;4856789;28;123714;-80
2024/01/24 05:58:50;;;;;;;15.00;3.60;;;;;;;15.50;58.09;101425.91;4869068;28;119287;-80
2024/01/24 06:01:17;;;;;;;17.73;3.25;;;;;;;15.50;58.10;101441.94;4854293;28;119971;-80
2024/01/24 06:03:45;;;;;;;19.52;3.90;;;;;;;15.49;58.20;101440.22;4829975;29;124902;-80
2024/01/24 06:06:12;;;;;;;21.27;4.00;;;;;;;15.48;58.04;101465.19;4844809;28;125197;-80
2024/01/24 06:08:40;;;;;;;20.23;3.67;;;;;;;15.47;58.05;101475.00;4854739;28;120285;-80
2024/01/24 06:11:09;;;;;;;16.50;3.75;;;;;;;15.47;58.13;101479.50;4856630;28;120061;-80
2024/01/24 06:13:37;;;;;;;22.08;3.90;;;;;;;15.47;57.98;101479.50;4872503;28;123872;-79
2024/01/24 06:16:04;;;;;;;18.90;4.00;;;;;;;15.46;58.09;101488.44;4855753;28;124163;-79
2024/01/24 06:18:31;;;;;;;20.65;3.72;;;;;;;15.44;58.06;101480.50;4845732;29;119960;-79
2024/01/24 06:20:59;;;;;;;18.30;3.85;;;;;;;15.44;58.05;101503.69;4849689;28;118560;-80
2024/01/24 06:23:26;;;;;;;22.25;4.45;;;;;;;15.43;58.23;101483.28;4869394;28;123575;-80
2024/01/24 06:25:53;;;;;;;23.75;4.22;;;;;;;15.42;58.07;101487.75;4865846;28;124506;-80
2024/01/24 06:28:21;;;;;;;22.10;4.45;;;;;;;15.42;58.05;101508.25;4871660;28;119353;-79
2024/01/24 06:30:48;;;;;;;21.38;4.68;;;;;;;15.40;58.03;101515.47;4871600;28;120240;-79
2024/01/24 06:33:15;;;;;;;18.38;4.32;;;;;;;15.37;57.78;101533.38;4871072;28;123937;-79
2024/01/24 06:35:42;;;;;;;28.67;4.75;;;;;;;15.35;57.79;101524.59;4860200;28;125084;-80
2024/01/24 06:38:10;;;;;;;23.05;4.63;;;;;;;15.35;57.64;101539.75;4871829;28;120977;-79
2024/01/24 06:40:37;;;;;;;25.50;4.40;;;;;;;15.34;57.17;101552.22;4872758;28;119699;-80
2024/01/24 06:43:04;;;;;;;22.08;4.63;;;;;;;15.32;57.23;101577.28;4874007;28;124371;-80
2024/01/24 06:45:31;;;;;;;26.65;4.70;;;;;;;15.28;56.74;101555.22;4869881;28;123902;-79
2024/01/24 06:47:59;;;;;;;24.08;4.35;;;;;;;15.26;56.62;101551.78;4861054;28;120784;-79
2024/01/24 06:50:27;;;;;;;26.70;5.28;;;;;;;15.23;56.64;101583.97;4868229;28;120435;-80
2024/01/24 06:52:54;;;;;;;28.02;4.88;;;;;;;15.19;56.51;101555.72;4849935;28;124054;-81
2024/01/24 06:55:24;;;;;;;23.55;4.97;;;;;;;15.15;56.10;101602.19;4855522;28;124280;-79
2024/01/24 06:57:51;;;;;;;23.20;4.75;;;;;;;15.12;55.90;101589.00;4852270;28;120114;-79
2024/01/24 07:00:19;;;;;;;23.35;4.22;;;;;;;15.09;55.92;101631.88;4855200;28;119843;-79
2024/01/24 07:02:47;;;;;;;29.70;5.15;;;;;;;15.06;55.95;101638.22;4869122;28;125516;-79
2024/01/24 07:05:14;;;;;;;25.77;4.80;;;;;;;15.04;56.18;101632.09;4850165;28;125015;-79
2024/01/24 07:07:42;;;;;;;34.22;5.20;;;;;;;15.02;55.97;101644.66;4854995;28;119186;-79
2024/01/24 07:10:10;;;;;;;30.23;4.80;;;;;;;14.97;56.07;101642.22;4871866;28;118491;-79
2024/01/24 07:12:44;;;;;;;26.45;5.10;;;;;;;14.93;55.91;101629.97;4861800;28;123976;-79
2024/01/24 07:15:17;;;;;;;19.35;2.88;;;;;;;14.90;55.91;101638.13;4852247;28;124902;-79
2024/01/24 07:17:44;;;;;;;20.15;3.30;;;;;;;14.86;56.32;101633.91;4871071;28;120496;-79
2024/01/24 07:20:13;;;;;;;21.77;3.45;;;;;;;14.83;56.27;101628.72;4870209;28;119183;-79
2024/01/24 07:22:40;;;;;;;16.33;3.03;;;;;;;14.79;56.37;101627.16;4838541;28;123112;-79
2024/01/24 07:25:08;;;;;;;29.65;4.80;;;;;;;14.76;56.23;101643.28;4854739;28;124916;-80
2024/01/24 07:27:35;;;;;;;9.82;3.15;;;;;;;14.72;56.27;101663.06;4867244;28;121420;-80
2024/01/24 07:30:06;;;;;;;18.92;3.28;;;;;;;14.70;56.26;101659.59;4836086;29;120066;-79
2024/01/24 07:32:35;;;;;;;18.70;2.90;;;;;;;14.66;56.26;101663.38;4851276;29;123670;-80
2024/01/24 07:35:02;;;;;;;18.83;3.40;;;;;;;14.62;56.08;101653.75;4838567;28;124621;-78
2024/01/24 07:37:30;;;;;;;18.77;2.88;;;;;;;14.57;56.34;101660.19;4872379;28;119266;-79
2024/01/24 07:39:57;;;;;;;16.65;3.28;;;;;;;14.54;56.13;101673.66;4862225;28;120259;-80
2024/01/24 07:42:25;;;;;;;18.15;2.90;;;;;;;14.51;56.19;101702.25;4869332;28;124645;-79
2024/01/24 07:44:52;;;;;;;22.92;3.40;;;;;;;14.48;56.17;101679.25;4839265;28;124668;-79
2024/01/24 07:47:19;;;;;;;21.25;3.15;;;;;;;14.45;56.43;101687.41;4856124;28;119373;-79
2024/01/24 07:49:47;;;;;;;18.38;3.50;;;;;;;14.43;56.22;101673.31;4865387;28;119740;-80
2024/01/24 07:52:15;;;;;;;18.83;3.55;;;;;;;14.41;56.36;101685.84;4855826;28;124665;-79
2024/01/24 07:54:59;;;;;;;24.05;3.45;;;;;;;14.38;56.38;101675.31;4842277;28;124928;-79
2024/01/24 07:57:27;;;;;;;23.63;3.58;;;;;;;14.36;56.58;101693.19;4842809;28;119159;-79
2024/01/24 07:59:55;;;;;;;15.77;3.10;;;;;;;14.33;56.31;101715.50;4854966;28;118520;-80
2024/01/24 08:02:24;;;;;;;20.10;2.90;;;;;;;14.31;56.32;101713.84;4870007;28;125478;-79
2024/01/24 08:04:51;;;;;;;18.13;3.13;;;;;;;14.30;56.39;101714.81;4862232;28;124126;-80
2024/01/24 08:07:18;;;;;;;16.08;3.30;;;;;;;14.29;56.25;101734.38;4869768;28;118840;-79
2024/01/24 08:09:46;;;;;;;16.88;3.40;;;;;;;14.27;56.29;101725.59;4857772;28;119222;-80
2024/01/24 08:12:15;;;;;;;18.17;3.00;;;;;;;14.25;56.13;101732.78;4869856;28;122962;-79
2024/01/24 08:14:43;;;;;;;22.10;3.60;;;;;;;14.24;56.09;101715.06;4866034;28;124450;-80
2024/01/24 08:17:10;;;;;;;16.65;2.90;;;;;;;14.23;56.11;101729.34;4854420;28;120432;-79
2024/01/24 08:19:38;;;;;;;21.08;2.92;;;;;;;14.23;56.11;101740.00;4847608;29;120926;-79
2024/01/24 08:22:06;;;;;;;18.77;2.78;;;;;;;14.20;56.02;101739.19;4836475;28;124344;-79
2024/01/24 08:24:33;;;;;;;21.23;3.00;;;;;;;14.19;56.04;101736.59;4854153;28;124424;-79
2024/01/24 08:27:00;;;;;;;17.35;3.10;;;;;;;14.19;56.03;101740.13;4868534;28;120193;-80
2024/01/24 08:29:28;;;;;;;18.30;2.92;;;;;;;14.17;55.96;101755.31;4850981;28;119413;-80
2024/01/24 08:32:04;;;;;;;14.75;3.10;;;;;;;14.16;55.79;101766.88;4858098;28;123956;-80
2024/01/24 08:34:35;;;;;;;15.77;2.90;;;;;;;14.15;55.89;101743.88;4863353;28;125075;-79
2024/01/24 08:37:03;;;;;;;19.60;2.95;;;;;;;14.13;55.84;101761.72;4852369;28;119492;-81
2024/01/24 08:39:34;;;;;;;19.40;3.50;;;;;;;14.14;55.79;101773.25;4854706;28;119731;-80
2024/01/24 08:42:02;;;;;;;14.20;2.83;;;;;;;14.13;55.70;101783.03;4836913;28;123150;-80
2024/01/24 08:44:30;;;;;;;16.58;3.25;;;;;;;14.12;55.74;101781.28;4868893;28;124433;-80
2024/01/24 08:46:57;;;;;;;17.10;2.85;;;;;;;14.12;55.58;101797.28;4851434;28;118306;-80
2024/01/24 08:49:25;;;;;;;22.92;3.00;;;;;;;14.10;55.68;101783.16;4869200;28;120687;-80
2024/01/24 08:51:52;;;;;;;16.88;2.95;;;;;;;14.10;55.88;101793.81;4867400;28;124353;-80
2024/01/24 08:54:20;;;;;;;23.88;3.17;;;;;;;14.10;55.80;101799.16;4848595;28;123196;-81
2024/01/24 08:56:48;;;;;;;19.77;3.40;;;;;;;14.10;55.62;101806.28;4844498;28;119394;-81
2024/01/24 08:59:16;;;;;;;24.45;3.28;;;;;;;14.10;55.42;101799.16;4855336;28;119011;-80
2024/01/24 09:01:47;;;;;;;17.17;3.40;;;;;;;14.11;55.69;101784.91;4854646;28;124823;-81
2024/01/24 09:04:17;;;;;;;14.70;2.97;;;;;;;14.10;55.64;101815.13;4838274;28;122245;-80
2024/01/24 09:06:45;;;;;;;19.70;3.60;;;;;;;14.11;55.62;101832.84;4869660;28;120372;-80
2024/01/24 09:09:15;;;;;;;20.25;3.35;;;;;;;14.11;55.67;101822.19;4853295;28;119866;-80
2024/01/24 09:11:43;;;;;;;13.88;3.30;;;;;;;14.12;55.58;101845.22;4839850;28;124608;-81
2024/01/24 09:14:24;;;;;;;18.90;3.28;;;;;;;14.12;55.40;101858.56;4858979;28;123737;-80
2024/01/24 09:16:52;;;;;;;19.30;3.67;;;;;;;14.12;55.39;101861.22;4881113;28;119684;-79
2024/01/24 09:19:20;;;;;;;18.25;3.33;;;;;;;14.14;55.57;101846.03;4882193;28;118304;-79
2024/01/24 09:21:47;;;;;;;23.88;3.60;;;;;;;14.14;55.43;101840.69;4883879;28;123694;-80
2024/01/24 09:24:16;;;;;;;20.73;3.58;;;;;;;14.16;55.46;101843.31;4898001;28;123107;-79
2024/01/24 09:26:43;;;;;;;22.27;3.20;;;;;;;14.16;55.58;101841.50;4892895;28;120894;-79
2024/01/24 09:29:12;;;;;;;20.45;2.65;;;;;;;14.18;55.54;101855.63;4870624;28;118801;-80
2024/01/24 09:31:45;;;;;;;20.25;3.20;;;;;;;14.18;55.42;101871.63;4896447;28;123660;-79
2024/01/24 09:34:12;;;;;;;22.98;3.45;;;;;;;14.21;55.38;101871.47;4896390;28;123359;-80
2024/01/24 09:36:41;;;;;;;26.05;3.28;;;;;;;14.23;55.40;101873.22;4893334;28;118665;-79
2024/01/24 09:39:09;;;;;;;21.85;3.33;;;;;;;14.24;55.28;101896.25;4880192;28;120272;-80
2024/01/24 09:41:41;;;;;;;21.88;3.42;;;;;;;14.25;55.24;101898.00;4867396;28;122547;-81
2024/01/24 09:44:09;;;;;;;16.30;2.95;;;;;;;14.26;55.34;101910.38;4855010;28;123477;-80
2024/01/24 09:46:37;;;;;;;20.48;3.45;;;;;;;14.27;55.19;101920.97;4862172;28;119089;-80
2024/01/24 09:49:06;;;;;;;15.80;2.45;;;;;;;14.28;55.22;101929.81;4869362;28;117440;-81
2024/01/24 09:51:34;;;;;;;19.60;2.85;;;;;;;14.29;55.20;101939.56;4853954;28;123029;-80
2024/01/24 09:54:07;;;;;;;15.52;3.25;;;;;;;14.29;55.09;101944.88;4854874;28;122169;-81
2024/01/24 09:56:36;;;;;;;19.92;3.25;;;;;;;14.30;55.03;101927.97;4869742;28;121333;-80
2024/01/24 09:59:05;;;;;;;18.77;3.58;;;;;;;14.31;55.00;101913.72;4853247;28;121855;-81
2024/01/24 10:01:38;;;;;;;20.88;2.92;;;;;;;14.33;54.96;101938.50;4850142;28;122894;-80
2024/01/24 10:04:07;;;;;;;15.15;2.63;;;;;;;14.34;54.94;101954.41;4864283;28;123825;-79
2024/01/24 10:06:38;;;;;;;18.92;3.63;;;;;;;14.36;54.72;101954.34;4857681;28;117835;-81
2024/01/24 10:09:05;;;;;;;20.38;2.90;;;;;;;14.37;54.88;101945.41;4843675;28;118389;-80
2024/01/24 10:11:35;;;;;;;16.65;2.88;;;;;;;14.37;55.07;101943.63;4835041;28;123089;-81
2024/01/24 10:14:02;;;;;;;16.13;3.05;;;;;;;14.41;54.84;101963.03;4847269;28;123657;-81
2024/01/24 10:16:29;;;;;;;23.00;4.07;;;;;;;14.42;54.75;101954.09;4863180;28;120229;-80
2024/01/24 10:18:57;;;;;;;16.33;3.33;;;;;;;14.46;54.78;101962.81;4867726;28;118508;-80
2024/01/24 10:21:25;;;;;;;16.15;3.28;;;;;;;14.47;54.68;101954.75;4863721;28;123108;-81
2024/01/24 10:23:57;;;;;;;18.27;3.25;;;;;;;14.49;54.84;101982.22;4854683;28;123151;-81
2024/01/24 10:26:26;;;;;;;24.05;3.90;;;;;;;14.51;54.56;101963.50;4855042;28;119431;-81
2024/01/24 10:28:54;;;;;;;14.85;3.33;;;;;;;14.52;54.45;101982.09;4852111;28;117163;-81
2024/01/24 10:31:23;;;;;;;20.48;4.10;;;;;;;14.54;54.59;101990.88;4850740;28;123988;-81
2024/01/24 10:33:55;;;;;;;21.70;3.53;;;;;;;14.57;54.39;101974.78;4873511;28;124216;-81
2024/01/24 10:36:23;;;;;;;13.38;3.00;;;;;;;14.60;54.58;101995.97;4832779;29;118249;-80
2024/01/24 10:39:00;;;;;;;17.38;3.30;;;;;;;14.63;54.50;101983.44;4869786;28;118141;-81
2024/01/24 10:41:30;;;;;;;22.08;2.90;;;;;;;14.66;54.40;101980.66;4855427;28;123594;-81
2024/01/24 10:44:04;;;;;;;15.35;2.70;;;;;;;14.69;54.24;102009.84;4856141;28;122391;-81
2024/01/24 10:46:33;;;;;;;19.13;3.08;;;;;;;14.70;54.04;101990.25;4871575;28;119894;-80
2024/01/24 10:49:01;;;;;;;17.15;2.80;;;;;;;14.71;54.23;101991.97;4872878;28;119146;-80
2024/01/24 10:51:29;;;;;;;17.15;2.63;;;;;;;14.72;54.09;102004.38;4871874;28;123120;-80
2024/01/24 10:53:58;;;;;;;14.88;2.90;;;;;;;14.71;54.23;102013.28;4871778;28;123570;-80
2024/01/24 10:56:27;;;;;;;11.57;2.47;;;;;;;14.73;53.95;102016.75;4856586;28;118772;-81
2024/01/24 10:58:56;;;;;;;15.23;2.85;;;;;;;14.73;54.07;102011.44;4855440;28;118492;-81
2024/01/24 11:01:24;;;;;;;13.32;2.92;;;;;;;14.74;54.05;102015.84;4853550;28;123866;-80
2024/01/24 11:03:53;;;;;;;20.33;3.58;;;;;;;14.74;53.81;102018.50;4851304;28;124651;-80
2024/01/24 11:06:24;;;;;;;13.63;2.92;;;;;;;14.74;53.80;102034.50;4851367;28;118223;-80
2024/01/24 11:09:02;;;;;;;13.13;2.33;;;;;;;14.74;53.73;102029.19;4867956;28;118934;-80
2024/01/24 11:11:33;;;;;;;16.63;3.15;;;;;;;14.74;53.80;102034.50;4870760;28;123932;-80
2024/01/24 11:14:01;;;;;;;20.60;3.40;;;;;;;14.76;53.77;102037.97;4869092;28;122703;-80
2024/01/24 11:16:36;;;;;;;16.70;2.97;;;;;;;14.76;53.61;102045.97;4848670;28;118428;-80